createdAt,value
2017-08-24T00:00:50.208Z,16.70
2017-08-24T00:03:19.059Z,16.70
2017-08-24T00:05:47.156Z,16.70
2017-08-24T00:08:15.351Z,16.80
2017-08-24T00:10:43.546Z,16.90
2017-08-24T00:13:12.411Z,16.90
2017-08-24T00:15:40.563Z,16.90
2017-08-24T00:18:08.643Z,16.80
2017-08-24T00:20:36.719Z,16.70
2017-08-24T00:23:04.855Z,16.70
2017-08-24T00:25:33.044Z,16.70
2017-08-24T00:28:01.132Z,16.60
2017-08-24T00:30:29.214Z,16.60
2017-08-24T00:32:57.355Z,16.70
2017-08-24T00:35:25.547Z,16.70
2017-08-24T00:37:53.636Z,16.50
2017-08-24T00:40:21.878Z,16.50
2017-08-24T00:42:50.152Z,16.50
2017-08-24T00:45:18.243Z,16.50
2017-08-24T00:47:46.358Z,16.40
2017-08-24T00:50:14.562Z,16.50
2017-08-24T00:52:42.639Z,16.40
2017-08-24T00:55:10.744Z,16.40
2017-08-24T00:57:38.847Z,16.40
2017-08-24T01:00:06.939Z,16.40
2017-08-24T01:02:35.019Z,16.40
2017-08-24T01:05:03.122Z,16.40
2017-08-24T01:07:31.214Z,16.30
2017-08-24T01:09:59.303Z,16.10
2017-08-24T01:12:27.395Z,16.20
2017-08-24T01:14:55.477Z,16.10
2017-08-24T01:17:24.336Z,16.00
2017-08-24T01:19:52.420Z,16.00
2017-08-24T01:22:20.513Z,16.10
2017-08-24T01:24:49.372Z,16.20
2017-08-24T01:27:17.468Z,16.20
2017-08-24T01:29:46.328Z,16.00
2017-08-24T01:32:14.415Z,16.00
2017-08-24T01:34:42.505Z,16.10
2017-08-24T01:37:10.596Z,16.20
2017-08-24T01:39:38.833Z,16.20
2017-08-24T01:42:06.992Z,16.20
2017-08-24T01:44:35.083Z,16.20
2017-08-24T01:47:04.108Z,16.10
2017-08-24T01:49:32.204Z,16.00
2017-08-24T01:52:00.291Z,16.00
2017-08-24T01:54:28.475Z,15.80
2017-08-24T01:56:56.560Z,15.90
2017-08-24T01:59:25.416Z,16.00
2017-08-24T02:01:53.496Z,16.00
2017-08-24T02:04:21.593Z,16.00
2017-08-24T02:06:50.440Z,16.00
2017-08-24T02:09:18.544Z,16.00
2017-08-24T02:11:46.629Z,16.00
2017-08-24T02:14:15.484Z,15.70
2017-08-24T02:16:43.596Z,15.70
2017-08-24T02:19:11.802Z,15.30
2017-08-24T02:21:39.889Z,15.30
2017-08-24T02:24:07.994Z,15.30
2017-08-24T02:26:36.856Z,15.50
2017-08-24T02:29:04.939Z,15.50
2017-08-24T02:31:33.034Z,15.60
2017-08-24T02:34:01.119Z,15.60
2017-08-24T02:36:29.216Z,15.60
2017-08-24T02:38:57.302Z,15.50
2017-08-24T02:41:25.401Z,14.70
2017-08-24T02:43:53.485Z,14.70
2017-08-24T02:46:21.572Z,14.80
2017-08-24T02:48:49.648Z,14.90
2017-08-24T02:51:17.740Z,14.90
2017-08-24T02:53:45.836Z,15.10
2017-08-24T02:56:13.930Z,15.20
2017-08-24T02:58:42.012Z,15.30
2017-08-24T03:01:10.103Z,15.40
2017-08-24T03:03:38.193Z,15.30
2017-08-24T03:06:06.272Z,15.10
2017-08-24T03:08:34.366Z,15.10
2017-08-24T03:11:05.123Z,15.20
2017-08-24T03:13:33.214Z,15.20
2017-08-24T03:16:01.336Z,15.20
2017-08-24T03:18:29.423Z,14.80
2017-08-24T03:20:57.683Z,14.40
2017-08-24T03:23:25.776Z,14.50
2017-08-24T03:25:53.862Z,14.80
2017-08-24T03:28:22.098Z,14.80
2017-08-24T03:30:50.196Z,14.80
2017-08-24T03:33:18.275Z,14.30
2017-08-24T03:35:46.366Z,14.10
2017-08-24T03:38:14.451Z,14.40
2017-08-24T03:40:42.651Z,14.60
2017-08-24T03:43:10.747Z,14.80
2017-08-24T03:45:38.842Z,14.90
2017-08-24T03:48:07.066Z,14.80
2017-08-24T03:50:35.214Z,14.50
2017-08-24T03:53:03.415Z,14.40
2017-08-24T03:55:31.504Z,14.60
2017-08-24T03:57:59.586Z,14.80
2017-08-24T04:00:27.775Z,14.40
2017-08-24T04:02:55.861Z,14.50
2017-08-24T04:05:23.936Z,14.70
2017-08-24T04:07:52.041Z,14.90
2017-08-24T04:10:20.122Z,14.70
2017-08-24T04:12:48.208Z,14.40
2017-08-24T04:15:16.291Z,14.50
2017-08-24T04:17:44.389Z,14.50
2017-08-24T04:20:12.484Z,14.70
2017-08-24T04:22:40.660Z,14.80
2017-08-24T04:25:08.745Z,14.90
2017-08-24T04:27:36.841Z,14.90
2017-08-24T04:30:05.020Z,14.90
2017-08-24T04:32:33.109Z,14.90
2017-08-24T04:35:01.188Z,15.00
2017-08-24T04:37:29.279Z,15.10
2017-08-24T04:39:57.390Z,15.10
2017-08-24T04:42:25.475Z,15.10
2017-08-24T04:44:53.565Z,15.10
2017-08-24T04:47:21.656Z,15.20
2017-08-24T04:49:49.747Z,15.20
2017-08-24T04:52:17.829Z,15.20
2017-08-24T04:54:46.679Z,15.20
2017-08-24T04:57:14.770Z,15.20
2017-08-24T04:59:42.879Z,15.20
2017-08-24T05:02:10.955Z,15.30
2017-08-24T05:04:39.080Z,15.40
2017-08-24T05:07:07.347Z,15.50
2017-08-24T05:09:35.446Z,15.60
2017-08-24T05:12:03.526Z,15.70
2017-08-24T05:14:31.668Z,15.70
2017-08-24T05:16:59.754Z,15.80
2017-08-24T05:19:27.859Z,15.60
2017-08-24T05:21:55.965Z,15.60
2017-08-24T05:24:24.039Z,15.80
2017-08-24T05:26:52.125Z,15.90
2017-08-24T05:29:20.216Z,15.90
2017-08-24T05:31:48.316Z,16.00
2017-08-24T05:34:16.406Z,16.10
2017-08-24T05:36:44.499Z,16.20
2017-08-24T05:39:12.595Z,16.40
2017-08-24T05:41:40.683Z,16.60
2017-08-24T05:44:08.779Z,16.70
2017-08-24T05:46:36.865Z,17.00
2017-08-24T05:49:04.951Z,17.10
2017-08-24T05:51:33.043Z,17.10
2017-08-24T05:54:01.131Z,16.80
2017-08-24T05:56:29.232Z,17.20
2017-08-24T05:58:57.373Z,17.30
2017-08-24T06:01:25.479Z,17.30
2017-08-24T06:03:53.651Z,17.30
2017-08-24T06:06:21.849Z,17.20
2017-08-24T06:08:49.946Z,17.20
2017-08-24T06:11:18.022Z,17.20
2017-08-24T06:13:46.117Z,17.40
2017-08-24T06:16:14.202Z,17.20
2017-08-24T06:18:43.612Z,17.70
2017-08-24T06:21:11.698Z,17.70
2017-08-24T06:23:39.788Z,18.00
2017-08-24T06:26:08.644Z,18.20
2017-08-24T06:28:36.742Z,18.20
2017-08-24T06:31:04.843Z,18.50
2017-08-24T06:33:33.043Z,18.80
2017-08-24T06:36:01.116Z,19.00
2017-08-24T06:38:29.217Z,18.80
2017-08-24T06:40:57.299Z,18.90
2017-08-24T06:43:25.378Z,19.20
2017-08-24T06:45:53.483Z,19.20
2017-08-24T06:48:21.561Z,19.60
2017-08-24T06:50:49.647Z,19.80
2017-08-24T06:53:18.505Z,20.20
2017-08-24T06:55:46.595Z,20.20
2017-08-24T06:58:14.689Z,20.50
2017-08-24T07:00:42.867Z,20.70
2017-08-24T07:03:10.978Z,20.80
2017-08-24T07:05:39.318Z,21.10
2017-08-24T07:08:08.189Z,21.70
2017-08-24T07:10:36.284Z,21.70
2017-08-24T07:13:04.363Z,21.80
2017-08-24T07:15:33.243Z,22.00
2017-08-24T07:18:01.322Z,22.00
2017-08-24T07:20:30.167Z,21.80
2017-08-24T07:22:58.268Z,21.80
2017-08-24T07:25:26.348Z,21.50
2017-08-24T07:27:54.430Z,21.20
2017-08-24T07:30:24.351Z,21.60
2017-08-24T07:32:52.435Z,21.60
2017-08-24T07:35:20.531Z,22.10
2017-08-24T07:37:48.615Z,21.60
2017-08-24T07:40:16.707Z,21.60
2017-08-24T07:42:44.799Z,21.10
2017-08-24T07:45:12.871Z,21.10
2017-08-24T07:47:41.179Z,21.00
2017-08-24T07:50:09.259Z,20.90
2017-08-24T07:52:37.385Z,21.30
2017-08-24T07:55:05.460Z,21.50
2017-08-24T07:57:33.541Z,21.70
2017-08-24T08:00:01.641Z,22.00
2017-08-24T08:02:29.812Z,22.50
2017-08-24T08:04:58.013Z,22.50
2017-08-24T08:07:26.079Z,22.40
2017-08-24T08:09:54.157Z,23.20
2017-08-24T08:12:22.234Z,22.10
2017-08-24T08:14:50.330Z,22.30
2017-08-24T08:17:18.411Z,22.20
2017-08-24T08:19:46.638Z,22.50
2017-08-24T08:22:14.729Z,22.70
2017-08-24T08:24:43.774Z,22.50
2017-08-24T08:27:11.852Z,22.50
2017-08-24T08:29:39.949Z,22.80
2017-08-24T08:32:08.024Z,23.00
2017-08-24T08:34:36.880Z,24.20
2017-08-24T08:37:04.976Z,24.20
2017-08-24T08:39:33.052Z,24.30
2017-08-24T08:42:01.899Z,23.70
2017-08-24T08:44:30.039Z,23.70
2017-08-24T08:46:58.080Z,23.20
2017-08-24T08:49:26.930Z,23.70
2017-08-24T08:51:55.051Z,23.60
2017-08-24T08:54:23.170Z,24.40
2017-08-24T08:56:51.267Z,24.60
2017-08-24T08:59:19.448Z,24.90
2017-08-24T09:01:47.716Z,24.70
2017-08-24T09:04:15.807Z,25.30
2017-08-24T09:06:43.898Z,25.60
2017-08-24T09:09:12.008Z,25.00
2017-08-24T09:11:40.100Z,23.80
2017-08-24T09:14:08.291Z,23.40
2017-08-24T09:16:36.579Z,23.30
2017-08-24T09:19:04.661Z,23.50
2017-08-24T09:21:32.891Z,23.60
2017-08-24T09:24:00.975Z,23.70
2017-08-24T09:26:29.850Z,23.50
2017-08-24T09:28:58.009Z,23.50
2017-08-24T09:31:26.099Z,23.50
2017-08-24T09:33:54.288Z,23.70
2017-08-24T09:36:22.377Z,24.50
2017-08-24T09:38:50.611Z,24.60
2017-08-24T09:41:18.704Z,25.40
2017-08-24T09:43:46.814Z,25.30
2017-08-24T09:46:14.899Z,24.50
2017-08-24T09:48:43.100Z,25.20
2017-08-24T09:51:11.195Z,25.20
2017-08-24T09:53:39.309Z,24.10
2017-08-24T09:56:07.400Z,23.60
2017-08-24T09:58:35.487Z,23.10
2017-08-24T10:01:03.588Z,22.60
2017-08-24T10:03:31.667Z,22.40
2017-08-24T10:05:59.759Z,22.10
2017-08-24T10:08:27.859Z,22.10
2017-08-24T10:10:55.954Z,22.20
2017-08-24T10:13:24.801Z,22.30
2017-08-24T10:15:52.910Z,22.40
2017-08-24T10:18:20.996Z,22.40
2017-08-24T10:20:49.119Z,22.50
2017-08-24T10:23:17.207Z,22.70
2017-08-24T10:25:46.080Z,23.80
2017-08-24T10:28:14.151Z,23.80
2017-08-24T10:30:42.285Z,25.20
2017-08-24T10:33:11.107Z,24.10
2017-08-24T10:35:39.202Z,24.00
2017-08-24T10:38:08.177Z,23.40
2017-08-24T10:40:36.256Z,23.30
2017-08-24T10:43:05.118Z,24.40
2017-08-24T10:45:33.199Z,24.50
2017-08-24T10:48:01.304Z,24.80
2017-08-24T10:50:29.395Z,24.90
2017-08-24T10:52:57.492Z,24.70
2017-08-24T10:55:25.575Z,24.30
2017-08-24T10:57:53.666Z,25.30
2017-08-24T11:00:21.767Z,24.90
2017-08-24T11:02:49.876Z,24.60
2017-08-24T11:05:17.953Z,24.20
2017-08-24T11:07:46.040Z,24.10
2017-08-24T11:10:14.130Z,23.50
2017-08-24T11:12:43.010Z,23.60
2017-08-24T11:15:11.100Z,23.60
2017-08-24T11:17:39.947Z,23.80
2017-08-24T11:20:08.056Z,23.80
2017-08-24T11:22:36.899Z,25.20
2017-08-24T11:25:05.003Z,25.20
2017-08-24T11:27:33.849Z,25.10
2017-08-24T11:30:01.940Z,25.20
2017-08-24T11:32:30.024Z,26.30
2017-08-24T11:34:58.107Z,27.10
2017-08-24T11:37:26.971Z,25.80
2017-08-24T11:39:55.063Z,25.80
2017-08-24T11:42:23.904Z,24.80
2017-08-24T11:44:51.999Z,24.80
2017-08-24T11:47:20.103Z,25.40
2017-08-24T11:49:48.188Z,26.80
2017-08-24T11:52:16.340Z,28.50
2017-08-24T11:54:44.455Z,28.30
2017-08-24T11:57:12.565Z,29.90
2017-08-24T11:59:40.636Z,28.80
2017-08-24T12:02:08.739Z,29.10
2017-08-24T12:04:36.818Z,26.90
2017-08-24T12:07:04.900Z,26.70
2017-08-24T12:09:32.978Z,27.30
2017-08-24T12:12:01.055Z,28.60
2017-08-24T12:14:29.130Z,28.60
2017-08-24T12:16:57.215Z,28.60
2017-08-24T12:19:25.291Z,28.70
2017-08-24T12:21:53.377Z,27.00
2017-08-24T12:24:21.448Z,27.20
2017-08-24T12:26:49.533Z,27.80
2017-08-24T12:29:17.603Z,26.90
2017-08-24T12:31:45.692Z,27.10
2017-08-24T12:34:13.777Z,27.60
2017-08-24T12:36:42.190Z,28.30
2017-08-24T12:39:11.283Z,28.40
2017-08-24T12:41:39.359Z,28.30
2017-08-24T12:44:07.453Z,29.20
2017-08-24T12:46:36.304Z,27.10
2017-08-24T12:49:04.424Z,27.00
2017-08-24T12:51:32.532Z,27.50
2017-08-24T12:54:00.605Z,28.50
2017-08-24T12:56:28.981Z,29.20
2017-08-24T12:58:57.416Z,29.50
2017-08-24T13:01:25.548Z,28.00
2017-08-24T13:03:53.637Z,28.30
2017-08-24T13:06:22.494Z,28.60
2017-08-24T13:08:50.580Z,28.50
2017-08-24T13:11:18.664Z,29.00
2017-08-24T13:13:46.748Z,28.70
2017-08-24T13:16:16.111Z,29.70
2017-08-24T13:18:44.205Z,29.60
2017-08-24T13:21:12.277Z,30.30
2017-08-24T13:23:41.133Z,30.80
2017-08-24T13:26:09.243Z,30.70
2017-08-24T13:28:38.096Z,30.90
2017-08-24T13:31:06.186Z,30.90
2017-08-24T13:33:34.260Z,29.10
2017-08-24T13:36:03.115Z,29.30
2017-08-24T13:38:31.196Z,29.30
2017-08-24T13:40:59.282Z,29.50
2017-08-24T13:43:27.353Z,28.60
2017-08-24T13:45:55.435Z,28.60
2017-08-24T13:48:24.283Z,28.50
2017-08-24T13:50:52.356Z,28.50
2017-08-24T13:53:20.431Z,28.80
2017-08-24T13:55:48.516Z,28.60
2017-08-24T13:58:16.586Z,28.20
2017-08-24T14:00:44.671Z,28.20
2017-08-24T14:03:13.529Z,28.80
2017-08-24T14:05:41.611Z,28.80
2017-08-24T14:08:10.670Z,28.60
2017-08-24T14:10:38.751Z,28.60
2017-08-24T14:13:06.849Z,28.60
2017-08-24T14:15:35.131Z,28.30
2017-08-24T14:18:04.036Z,27.60
2017-08-24T14:20:32.292Z,27.60
2017-08-24T14:23:00.397Z,26.70
2017-08-24T14:25:28.474Z,26.80
2017-08-24T14:27:56.555Z,27.00
2017-08-24T14:30:24.722Z,27.30
2017-08-24T14:32:52.871Z,27.20
2017-08-24T14:35:21.111Z,27.30
2017-08-24T14:37:49.197Z,26.90
2017-08-24T14:40:17.267Z,26.80
2017-08-24T14:42:45.522Z,26.40
2017-08-24T14:45:13.608Z,26.60
2017-08-24T14:47:42.280Z,26.20
2017-08-24T14:50:10.590Z,26.30
2017-08-24T14:52:39.605Z,26.30
2017-08-24T14:55:07.927Z,26.30
2017-08-24T14:57:36.079Z,26.40
2017-08-24T15:00:04.164Z,26.30
2017-08-24T15:02:32.253Z,26.30
2017-08-24T15:05:01.112Z,26.10
2017-08-24T15:07:29.301Z,26.00
2017-08-24T15:09:57.513Z,25.90
2017-08-24T15:12:25.651Z,25.80
2017-08-24T15:14:53.740Z,25.90
2017-08-24T15:17:21.822Z,25.90
2017-08-24T15:19:49.920Z,26.00
2017-08-24T15:22:17.993Z,26.30
2017-08-24T15:24:46.194Z,25.70
2017-08-24T15:27:14.295Z,25.80
2017-08-24T15:29:42.371Z,25.80
2017-08-24T15:32:10.488Z,25.80
2017-08-24T15:34:38.562Z,25.60
2017-08-24T15:37:06.647Z,25.60
2017-08-24T15:39:34.719Z,25.70
2017-08-24T15:42:02.805Z,25.90
2017-08-24T15:44:31.035Z,25.70
2017-08-24T15:46:59.135Z,25.30
2017-08-24T15:49:27.232Z,25.30
2017-08-24T15:51:55.315Z,25.30
2017-08-24T15:54:23.412Z,25.30
2017-08-24T15:56:51.487Z,25.30
2017-08-24T15:59:19.571Z,25.30
2017-08-24T16:01:47.655Z,25.20
2017-08-24T16:04:15.740Z,25.10
2017-08-24T16:06:43.799Z,25.00
2017-08-24T16:09:11.885Z,25.00
2017-08-24T16:11:39.971Z,25.10
2017-08-24T16:14:08.063Z,25.00
2017-08-24T16:16:36.142Z,25.00
2017-08-24T16:19:04.248Z,25.00
2017-08-24T16:21:32.335Z,24.90
2017-08-24T16:24:00.399Z,24.80
2017-08-24T16:26:28.486Z,24.70
2017-08-24T16:28:56.550Z,24.60
2017-08-24T16:31:25.420Z,24.50
2017-08-24T16:33:53.491Z,24.50
2017-08-24T16:36:21.572Z,24.40
2017-08-24T16:38:49.656Z,24.40
2017-08-24T16:41:17.734Z,24.40
2017-08-24T16:43:45.810Z,24.30
2017-08-24T16:46:13.899Z,24.30
2017-08-24T16:48:41.975Z,24.20
2017-08-24T16:51:10.047Z,24.10
2017-08-24T16:53:38.132Z,24.20
2017-08-24T16:56:06.197Z,24.10
2017-08-24T16:58:34.278Z,23.90
2017-08-24T17:01:02.379Z,23.90
2017-08-24T17:03:31.235Z,23.80
2017-08-24T17:05:59.310Z,23.80
2017-08-24T17:08:27.397Z,23.80
2017-08-24T17:10:55.473Z,23.70
2017-08-24T17:13:23.567Z,23.60
2017-08-24T17:15:51.676Z,23.60
2017-08-24T17:18:19.752Z,23.50
2017-08-24T17:20:47.843Z,23.60
2017-08-24T17:23:15.925Z,23.50
2017-08-24T17:25:44.012Z,23.40
2017-08-24T17:31:08.883Z,23.40
2017-08-24T17:33:36.961Z,23.20
2017-08-24T17:36:05.054Z,23.20
2017-08-24T17:38:33.134Z,23.10
2017-08-24T17:41:01.221Z,23.10
2017-08-24T17:43:29.295Z,22.90
2017-08-24T17:45:57.371Z,22.80
2017-08-24T17:48:25.448Z,22.90
2017-08-24T17:50:53.537Z,22.80
2017-08-24T17:53:21.632Z,22.70
2017-08-24T17:55:50.499Z,22.70
2017-08-24T17:58:18.595Z,22.70
2017-08-24T18:00:46.687Z,22.70
2017-08-24T18:03:14.775Z,22.70
2017-08-24T18:05:42.860Z,22.70
2017-08-24T18:08:11.039Z,22.60
2017-08-24T18:10:39.128Z,22.50
2017-08-24T18:13:07.212Z,22.50
2017-08-24T18:15:35.288Z,22.40
2017-08-24T18:18:03.378Z,22.40
2017-08-24T18:20:31.460Z,22.30
2017-08-24T18:22:59.551Z,22.10
2017-08-24T18:25:28.391Z,22.10
2017-08-24T18:27:56.481Z,22.10
2017-08-24T18:30:24.562Z,22.00
2017-08-24T18:32:52.635Z,22.00
2017-08-24T18:35:20.719Z,21.90
2017-08-24T18:37:48.797Z,21.80
2017-08-24T18:40:17.651Z,21.70
2017-08-24T18:42:45.823Z,21.70
2017-08-24T18:45:13.922Z,21.70
2017-08-24T18:47:41.996Z,21.60
2017-08-24T18:50:10.087Z,21.50
2017-08-24T18:52:38.159Z,21.40
2017-08-24T18:55:06.238Z,21.30
2017-08-24T18:57:34.409Z,21.30
2017-08-24T19:00:02.479Z,21.20
2017-08-24T19:02:30.556Z,21.10
2017-08-24T19:04:58.647Z,21.00
2017-08-24T19:07:26.721Z,21.00
2017-08-24T19:09:54.805Z,21.00
2017-08-24T19:12:23.739Z,20.90
2017-08-24T19:14:52.151Z,20.80
2017-08-24T19:17:20.920Z,20.80
2017-08-24T19:19:49.015Z,20.80
2017-08-24T19:22:17.106Z,20.60
2017-08-24T19:24:45.188Z,20.40
2017-08-24T19:27:13.276Z,20.40
2017-08-24T19:29:41.348Z,20.40
2017-08-24T19:32:09.511Z,20.40
2017-08-24T19:34:37.588Z,20.40
2017-08-24T19:37:05.715Z,20.30
2017-08-24T19:39:33.780Z,20.30
2017-08-24T19:42:02.641Z,20.10
2017-08-24T19:44:30.722Z,20.10
2017-08-24T19:46:58.810Z,20.10
2017-08-24T19:49:26.903Z,20.10
2017-08-24T19:51:54.986Z,20.10
2017-08-24T19:54:23.075Z,20.20
2017-08-24T19:56:51.162Z,20.20
2017-08-24T19:59:20.068Z,20.20
2017-08-24T20:01:48.944Z,20.30
2017-08-24T20:04:17.856Z,20.30
2017-08-24T20:06:45.939Z,20.30
2017-08-24T20:09:14.042Z,20.00
2017-08-24T20:11:42.163Z,20.00
2017-08-24T20:14:10.231Z,20.10
2017-08-24T20:16:38.332Z,20.10
2017-08-24T20:19:06.420Z,20.00
2017-08-24T20:21:34.514Z,19.80
2017-08-24T20:24:02.791Z,19.90
2017-08-24T20:26:30.984Z,19.80
2017-08-24T20:28:59.076Z,19.70
2017-08-24T20:31:27.158Z,19.70
2017-08-24T20:33:55.247Z,19.70
2017-08-24T20:36:23.363Z,19.80
2017-08-24T20:38:51.485Z,19.80
2017-08-24T20:41:19.679Z,19.60
2017-08-24T20:43:47.760Z,19.50
2017-08-24T20:46:15.900Z,19.50
2017-08-24T20:48:43.980Z,19.40
2017-08-24T20:51:12.055Z,19.30
2017-08-24T20:53:40.240Z,19.40
2017-08-24T20:56:08.315Z,19.40
2017-08-24T20:58:36.475Z,19.30
2017-08-24T21:01:04.651Z,19.40
2017-08-24T21:03:32.738Z,19.40
2017-08-24T21:06:00.999Z,19.40
2017-08-24T21:08:29.093Z,19.20
2017-08-24T21:10:57.166Z,19.10
2017-08-24T21:13:25.254Z,19.00
2017-08-24T21:15:53.338Z,19.20
2017-08-24T21:18:21.455Z,19.20
2017-08-24T21:20:49.641Z,18.90
2017-08-24T21:23:17.982Z,19.00
2017-08-24T21:25:46.043Z,18.90
2017-08-24T21:28:14.118Z,18.70
2017-08-24T21:30:42.519Z,18.70
2017-08-24T21:33:10.611Z,18.10
2017-08-24T21:35:38.700Z,18.00
2017-08-24T21:38:06.787Z,18.10
2017-08-24T21:40:34.999Z,18.40
2017-08-24T21:43:03.083Z,18.50
2017-08-24T21:45:31.168Z,18.30
2017-08-24T21:47:59.248Z,18.30
2017-08-24T21:50:28.094Z,18.40
2017-08-24T21:52:56.170Z,18.40
2017-08-24T21:55:24.247Z,18.20
2017-08-24T21:57:52.318Z,18.50
2017-08-24T22:00:20.408Z,18.50
2017-08-24T22:02:48.528Z,18.50
2017-08-24T22:05:16.632Z,18.70
2017-08-24T22:07:44.709Z,18.60
2017-08-24T22:53:58.736Z,18.80
2017-08-24T22:59:33.331Z,17.80
2017-08-24T23:02:06.993Z,17.80
2017-08-24T23:04:35.083Z,17.90
2017-08-24T23:07:03.183Z,17.70
2017-08-24T23:09:31.271Z,17.50
2017-08-24T23:11:59.351Z,17.40
2017-08-24T23:14:27.448Z,17.30
2017-08-24T23:16:55.516Z,17.10
2017-08-24T23:19:23.604Z,17.10
2017-08-24T23:21:51.878Z,17.40
2017-08-24T23:24:20.071Z,17.70
2017-08-24T23:26:48.147Z,17.40
2017-08-24T23:29:16.229Z,17.70
2017-08-24T23:31:45.072Z,17.70
2017-08-24T23:34:13.146Z,17.70
2017-08-24T23:36:41.239Z,17.50
2017-08-24T23:39:09.317Z,17.20
2017-08-24T23:41:37.403Z,17.20
2017-08-24T23:44:05.491Z,17.50
2017-08-24T23:46:33.564Z,17.50
2017-08-24T23:49:01.640Z,17.60
2017-08-24T23:51:29.731Z,17.50
2017-08-24T23:53:57.811Z,17.50
2017-08-24T23:56:25.888Z,17.60
2017-08-24T23:58:54.032Z,17.50
